sensor_id;sensor_type;location;lat;lon;timestamp;temperature;humidity
7502;DHT22;3792;47.740;7.606;2023-11-18T00:00:27;5.00;99.90
7502;DHT22;3792;47.740;7.606;2023-11-18T00:02:54;4.90;99.90
7502;DHT22;3792;47.740;7.606;2023-11-18T00:05:23;5.00;99.90
7502;DHT22;3792;47.740;7.606;2023-11-18T00:07:50;5.00;99.90
7502;DHT22;3792;47.740;7.606;2023-11-18T00:10:17;5.10;99.90
7502;DHT22;3792;47.740;7.606;2023-11-18T00:12:44;5.20;99.90
7502;DHT22;3792;47.740;7.606;2023-11-18T00:15:12;5.20;99.90
7502;DHT22;3792;47.740;7.606;2023-11-18T00:17:39;5.20;99.90
7502;DHT22;3792;47.740;7.606;2023-11-18T00:20:07;5.30;99.90
7502;DHT22;3792;47.740;7.606;2023-11-18T00:22:39;5.40;99.90
7502;DHT22;3792;47.740;7.606;2023-11-18T00:25:07;5.40;99.90
7502;DHT22;3792;47.740;7.606;2023-11-18T00:27:34;5.50;99.90
7502;DHT22;3792;47.740;7.606;2023-11-18T00:30:03;5.50;99.90
7502;DHT22;3792;47.740;7.606;2023-11-18T00:32:34;5.30;99.90
7502;DHT22;3792;47.740;7.606;2023-11-18T00:35:02;5.20;99.90
7502;DHT22;3792;47.740;7.606;2023-11-18T00:37:30;5.20;99.90
7502;DHT22;3792;47.740;7.606;2023-11-18T00:39:58;5.20;99.90
7502;DHT22;3792;47.740;7.606;2023-11-18T00:42:26;5.30;99.90
7502;DHT22;3792;47.740;7.606;2023-11-18T00:44:53;5.40;99.90
7502;DHT22;3792;47.740;7.606;2023-11-18T00:47:21;5.50;99.90
7502;DHT22;3792;47.740;7.606;2023-11-18T00:49:49;5.50;99.90
7502;DHT22;3792;47.740;7.606;2023-11-18T00:52:17;5.50;99.90
7502;DHT22;3792;47.740;7.606;2023-11-18T00:54:45;5.60;99.90
7502;DHT22;3792;47.740;7.606;2023-11-18T00:57:13;5.60;99.90
7502;DHT22;3792;47.740;7.606;2023-11-18T00:59:43;5.70;99.90
7502;DHT22;3792;47.740;7.606;2023-11-18T01:02:11;5.80;99.90
7502;DHT22;3792;47.740;7.606;2023-11-18T01:04:39;5.80;99.90
7502;DHT22;3792;47.740;7.606;2023-11-18T01:07:06;5.80;99.90
7502;DHT22;3792;47.740;7.606;2023-11-18T01:09:34;5.80;99.90
7502;DHT22;3792;47.740;7.606;2023-11-18T01:12:05;5.80;99.90
7502;DHT22;3792;47.740;7.606;2023-11-18T01:14:36;5.70;99.90
7502;DHT22;3792;47.740;7.606;2023-11-18T01:17:04;5.70;99.90
7502;DHT22;3792;47.740;7.606;2023-11-18T01:19:32;5.60;99.90
7502;DHT22;3792;47.740;7.606;2023-11-18T01:21:59;5.70;99.90
7502;DHT22;3792;47.740;7.606;2023-11-18T01:24:26;5.60;99.90
7502;DHT22;3792;47.740;7.606;2023-11-18T01:26:54;5.50;99.90
7502;DHT22;3792;47.740;7.606;2023-11-18T01:29:21;5.50;99.90
7502;DHT22;3792;47.740;7.606;2023-11-18T01:31:51;5.50;99.90
7502;DHT22;3792;47.740;7.606;2023-11-18T01:34:18;5.50;99.90
7502;DHT22;3792;47.740;7.606;2023-11-18T01:36:47;5.40;99.90
7502;DHT22;3792;47.740;7.606;2023-11-18T01:39:15;5.40;99.90
7502;DHT22;3792;47.740;7.606;2023-11-18T01:41:43;5.40;99.90
7502;DHT22;3792;47.740;7.606;2023-11-18T01:44:10;5.40;99.90
7502;DHT22;3792;47.740;7.606;2023-11-18T01:46:40;5.20;99.90
7502;DHT22;3792;47.740;7.606;2023-11-18T01:49:12;5.20;99.90
7502;DHT22;3792;47.740;7.606;2023-11-18T01:51:41;5.30;99.90
7502;DHT22;3792;47.740;7.606;2023-11-18T01:54:09;5.30;99.90
7502;DHT22;3792;47.740;7.606;2023-11-18T01:56:41;5.40;99.90
7502;DHT22;3792;47.740;7.606;2023-11-18T01:59:09;5.40;99.90
7502;DHT22;3792;47.740;7.606;2023-11-18T02:01:44;5.40;99.90
7502;DHT22;3792;47.740;7.606;2023-11-18T02:04:15;5.40;99.90
7502;DHT22;3792;47.740;7.606;2023-11-18T02:06:46;5.40;99.90
7502;DHT22;3792;47.740;7.606;2023-11-18T02:09:15;5.40;99.90
7502;DHT22;3792;47.740;7.606;2023-11-18T02:11:48;5.40;99.90
7502;DHT22;3792;47.740;7.606;2023-11-18T02:14:20;5.40;99.90
7502;DHT22;3792;47.740;7.606;2023-11-18T02:16:52;5.40;99.90
7502;DHT22;3792;47.740;7.606;2023-11-18T02:19:22;5.50;99.90
7502;DHT22;3792;47.740;7.606;2023-11-18T02:21:52;5.50;99.90
7502;DHT22;3792;47.740;7.606;2023-11-18T02:24:26;5.40;99.90
7502;DHT22;3792;47.740;7.606;2023-11-18T02:26:58;5.40;99.90
7502;DHT22;3792;47.740;7.606;2023-11-18T02:29:27;5.40;99.90
7502;DHT22;3792;47.740;7.606;2023-11-18T02:31:58;5.40;99.90
7502;DHT22;3792;47.740;7.606;2023-11-18T02:34:30;5.30;99.90
7502;DHT22;3792;47.740;7.606;2023-11-18T02:37:03;5.30;99.90
7502;DHT22;3792;47.740;7.606;2023-11-18T02:39:38;5.20;99.90
7502;DHT22;3792;47.740;7.606;2023-11-18T02:42:09;5.20;99.90
7502;DHT22;3792;47.740;7.606;2023-11-18T02:44:38;5.20;99.90
7502;DHT22;3792;47.740;7.606;2023-11-18T02:47:05;5.10;99.90
7502;DHT22;3792;47.740;7.606;2023-11-18T02:49:34;5.10;99.90
7502;DHT22;3792;47.740;7.606;2023-11-18T02:52:02;5.10;99.90
7502;DHT22;3792;47.740;7.606;2023-11-18T02:54:30;5.00;99.90
7502;DHT22;3792;47.740;7.606;2023-11-18T02:56:57;5.00;99.90
7502;DHT22;3792;47.740;7.606;2023-11-18T02:59:27;5.00;99.90
7502;DHT22;3792;47.740;7.606;2023-11-18T03:01:55;5.10;99.90
7502;DHT22;3792;47.740;7.606;2023-11-18T03:04:23;5.10;99.90
7502;DHT22;3792;47.740;7.606;2023-11-18T03:06:50;5.00;99.90
7502;DHT22;3792;47.740;7.606;2023-11-18T03:09:17;4.90;99.90
7502;DHT22;3792;47.740;7.606;2023-11-18T03:11:44;4.90;99.90
7502;DHT22;3792;47.740;7.606;2023-11-18T03:14:11;4.80;99.90
7502;DHT22;3792;47.740;7.606;2023-11-18T03:16:40;4.70;99.90
7502;DHT22;3792;47.740;7.606;2023-11-18T03:19:07;4.70;99.90
7502;DHT22;3792;47.740;7.606;2023-11-18T03:21:34;4.70;99.90
7502;DHT22;3792;47.740;7.606;2023-11-18T03:24:05;4.70;99.90
7502;DHT22;3792;47.740;7.606;2023-11-18T03:26:32;4.70;99.90
7502;DHT22;3792;47.740;7.606;2023-11-18T03:28:59;4.70;99.90
7502;DHT22;3792;47.740;7.606;2023-11-18T03:31:26;4.60;99.90
7502;DHT22;3792;47.740;7.606;2023-11-18T03:33:56;4.70;99.90
7502;DHT22;3792;47.740;7.606;2023-11-18T03:36:23;4.70;99.90
7502;DHT22;3792;47.740;7.606;2023-11-18T03:38:50;4.60;99.90
7502;DHT22;3792;47.740;7.606;2023-11-18T03:41:17;4.70;99.90
7502;DHT22;3792;47.740;7.606;2023-11-18T03:43:44;4.70;99.90
7502;DHT22;3792;47.740;7.606;2023-11-18T03:46:13;4.60;99.90
7502;DHT22;3792;47.740;7.606;2023-11-18T03:48:41;4.60;99.90
7502;DHT22;3792;47.740;7.606;2023-11-18T03:51:11;4.60;99.90
7502;DHT22;3792;47.740;7.606;2023-11-18T03:53:38;4.60;99.90
7502;DHT22;3792;47.740;7.606;2023-11-18T03:56:05;4.50;99.90
7502;DHT22;3792;47.740;7.606;2023-11-18T03:58:33;4.50;99.90
7502;DHT22;3792;47.740;7.606;2023-11-18T04:01:00;4.50;99.90
7502;DHT22;3792;47.740;7.606;2023-11-18T04:03:27;4.50;99.90
7502;DHT22;3792;47.740;7.606;2023-11-18T04:05:54;4.50;99.90
7502;DHT22;3792;47.740;7.606;2023-11-18T04:08:22;4.50;99.90
7502;DHT22;3792;47.740;7.606;2023-11-18T04:10:51;4.60;99.90
7502;DHT22;3792;47.740;7.606;2023-11-18T04:13:18;4.50;99.90
7502;DHT22;3792;47.740;7.606;2023-11-18T04:15:45;4.50;99.90
7502;DHT22;3792;47.740;7.606;2023-11-18T04:18:12;4.50;99.90
7502;DHT22;3792;47.740;7.606;2023-11-18T04:20:39;4.50;99.90
7502;DHT22;3792;47.740;7.606;2023-11-18T04:23:06;4.60;99.90
7502;DHT22;3792;47.740;7.606;2023-11-18T04:25:34;4.60;99.90
7502;DHT22;3792;47.740;7.606;2023-11-18T04:28:01;4.60;99.90
7502;DHT22;3792;47.740;7.606;2023-11-18T04:30:29;4.70;99.90
7502;DHT22;3792;47.740;7.606;2023-11-18T04:32:56;4.60;99.90
7502;DHT22;3792;47.740;7.606;2023-11-18T04:35:23;4.50;99.90
7502;DHT22;3792;47.740;7.606;2023-11-18T04:37:50;4.60;99.90
7502;DHT22;3792;47.740;7.606;2023-11-18T04:40:17;4.60;99.90
7502;DHT22;3792;47.740;7.606;2023-11-18T04:42:46;4.60;99.90
7502;DHT22;3792;47.740;7.606;2023-11-18T04:45:13;4.70;99.90
7502;DHT22;3792;47.740;7.606;2023-11-18T04:47:41;4.70;99.90
7502;DHT22;3792;47.740;7.606;2023-11-18T04:50:10;4.80;99.90
7502;DHT22;3792;47.740;7.606;2023-11-18T04:52:37;4.80;99.90
7502;DHT22;3792;47.740;7.606;2023-11-18T04:55:05;4.80;99.90
7502;DHT22;3792;47.740;7.606;2023-11-18T04:57:32;4.80;99.90
7502;DHT22;3792;47.740;7.606;2023-11-18T05:00:01;4.90;99.90
7502;DHT22;3792;47.740;7.606;2023-11-18T05:02:36;4.90;99.90
7502;DHT22;3792;47.740;7.606;2023-11-18T05:05:03;4.90;99.90
7502;DHT22;3792;47.740;7.606;2023-11-18T05:07:32;4.90;99.90
7502;DHT22;3792;47.740;7.606;2023-11-18T05:09:59;4.80;99.90
7502;DHT22;3792;47.740;7.606;2023-11-18T05:12:26;4.90;99.90
7502;DHT22;3792;47.740;7.606;2023-11-18T05:14:55;4.90;99.90
7502;DHT22;3792;47.740;7.606;2023-11-18T05:17:23;5.00;99.90
7502;DHT22;3792;47.740;7.606;2023-11-18T05:19:51;4.90;99.90
7502;DHT22;3792;47.740;7.606;2023-11-18T05:22:19;4.90;99.90
7502;DHT22;3792;47.740;7.606;2023-11-18T05:24:46;5.00;99.90
7502;DHT22;3792;47.740;7.606;2023-11-18T05:27:13;5.00;99.90
7502;DHT22;3792;47.740;7.606;2023-11-18T05:29:40;5.00;99.90
7502;DHT22;3792;47.740;7.606;2023-11-18T05:32:08;5.10;99.90
7502;DHT22;3792;47.740;7.606;2023-11-18T05:34:37;5.10;99.90
7502;DHT22;3792;47.740;7.606;2023-11-18T05:37:04;5.10;99.90
7502;DHT22;3792;47.740;7.606;2023-11-18T05:39:31;5.10;99.90
7502;DHT22;3792;47.740;7.606;2023-11-18T05:42:00;5.20;99.90
7502;DHT22;3792;47.740;7.606;2023-11-18T05:44:27;5.20;99.90
7502;DHT22;3792;47.740;7.606;2023-11-18T05:47:03;5.20;99.90
7502;DHT22;3792;47.740;7.606;2023-11-18T05:49:30;5.20;99.90
7502;DHT22;3792;47.740;7.606;2023-11-18T05:51:58;5.20;99.90
7502;DHT22;3792;47.740;7.606;2023-11-18T05:54:26;5.30;99.90
7502;DHT22;3792;47.740;7.606;2023-11-18T05:56:53;5.30;99.90
7502;DHT22;3792;47.740;7.606;2023-11-18T05:59:20;5.30;99.90
7502;DHT22;3792;47.740;7.606;2023-11-18T06:01:49;5.20;99.90
7502;DHT22;3792;47.740;7.606;2023-11-18T06:04:16;5.30;99.90
7502;DHT22;3792;47.740;7.606;2023-11-18T06:06:43;5.20;99.90
7502;DHT22;3792;47.740;7.606;2023-11-18T06:09:12;5.30;99.90
7502;DHT22;3792;47.740;7.606;2023-11-18T06:11:46;5.30;99.90
7502;DHT22;3792;47.740;7.606;2023-11-18T06:14:15;5.40;99.90
7502;DHT22;3792;47.740;7.606;2023-11-18T06:16:42;5.40;99.90
7502;DHT22;3792;47.740;7.606;2023-11-18T06:19:09;5.40;99.90
7502;DHT22;3792;47.740;7.606;2023-11-18T06:21:36;5.40;99.90
7502;DHT22;3792;47.740;7.606;2023-11-18T06:24:04;5.40;99.90
7502;DHT22;3792;47.740;7.606;2023-11-18T06:26:33;5.50;99.90
7502;DHT22;3792;47.740;7.606;2023-11-18T06:29:02;5.50;99.90
7502;DHT22;3792;47.740;7.606;2023-11-18T06:31:29;5.40;99.90
7502;DHT22;3792;47.740;7.606;2023-11-18T06:33:57;5.40;99.90
7502;DHT22;3792;47.740;7.606;2023-11-18T06:36:24;5.30;99.90
7502;DHT22;3792;47.740;7.606;2023-11-18T06:38:53;5.30;99.90
7502;DHT22;3792;47.740;7.606;2023-11-18T06:41:22;5.30;99.90
7502;DHT22;3792;47.740;7.606;2023-11-18T06:43:52;5.30;99.90
7502;DHT22;3792;47.740;7.606;2023-11-18T06:46:27;5.30;99.90
7502;DHT22;3792;47.740;7.606;2023-11-18T06:48:57;5.30;99.90
7502;DHT22;3792;47.740;7.606;2023-11-18T06:51:26;5.30;99.90
7502;DHT22;3792;47.740;7.606;2023-11-18T06:53:54;5.40;99.90
7502;DHT22;3792;47.740;7.606;2023-11-18T06:56:22;5.40;99.90
7502;DHT22;3792;47.740;7.606;2023-11-18T06:58:49;5.40;99.90
7502;DHT22;3792;47.740;7.606;2023-11-18T07:01:19;5.40;99.90
7502;DHT22;3792;47.740;7.606;2023-11-18T07:03:47;5.40;99.90
7502;DHT22;3792;47.740;7.606;2023-11-18T07:06:18;5.40;99.90
7502;DHT22;3792;47.740;7.606;2023-11-18T07:08:47;5.50;99.90
7502;DHT22;3792;47.740;7.606;2023-11-18T07:11:15;5.60;99.90
7502;DHT22;3792;47.740;7.606;2023-11-18T07:13:42;5.50;99.90
7502;DHT22;3792;47.740;7.606;2023-11-18T07:16:09;5.50;99.90
7502;DHT22;3792;47.740;7.606;2023-11-18T07:18:39;5.50;99.90
7502;DHT22;3792;47.740;7.606;2023-11-18T07:21:07;5.50;99.90
7502;DHT22;3792;47.740;7.606;2023-11-18T07:23:35;5.50;99.90
7502;DHT22;3792;47.740;7.606;2023-11-18T07:26:02;5.50;99.90
7502;DHT22;3792;47.740;7.606;2023-11-18T07:28:30;5.50;99.90
7502;DHT22;3792;47.740;7.606;2023-11-18T07:30:57;5.60;99.90
7502;DHT22;3792;47.740;7.606;2023-11-18T07:33:25;5.60;99.90
7502;DHT22;3792;47.740;7.606;2023-11-18T07:35:53;5.70;99.90
7502;DHT22;3792;47.740;7.606;2023-11-18T07:38:21;5.80;99.90
7502;DHT22;3792;47.740;7.606;2023-11-18T07:40:49;5.90;99.90
7502;DHT22;3792;47.740;7.606;2023-11-18T07:43:18;6.00;99.90
7502;DHT22;3792;47.740;7.606;2023-11-18T07:45:47;6.00;99.90
7502;DHT22;3792;47.740;7.606;2023-11-18T07:48:16;6.10;99.90
7502;DHT22;3792;47.740;7.606;2023-11-18T07:50:43;6.20;99.90
7502;DHT22;3792;47.740;7.606;2023-11-18T07:53:12;6.20;99.90
7502;DHT22;3792;47.740;7.606;2023-11-18T07:55:40;6.30;99.90
7502;DHT22;3792;47.740;7.606;2023-11-18T07:58:07;6.30;99.90
7502;DHT22;3792;47.740;7.606;2023-11-18T08:00:36;6.30;99.90
7502;DHT22;3792;47.740;7.606;2023-11-18T08:03:05;6.30;99.90
7502;DHT22;3792;47.740;7.606;2023-11-18T08:05:33;6.40;99.90
7502;DHT22;3792;47.740;7.606;2023-11-18T08:08:00;6.50;99.90
7502;DHT22;3792;47.740;7.606;2023-11-18T08:10:28;6.50;99.90
7502;DHT22;3792;47.740;7.606;2023-11-18T08:12:58;6.60;99.90
7502;DHT22;3792;47.740;7.606;2023-11-18T08:15:25;6.60;99.90
7502;DHT22;3792;47.740;7.606;2023-11-18T08:17:55;6.60;99.90
7502;DHT22;3792;47.740;7.606;2023-11-18T08:20:22;6.70;99.90
7502;DHT22;3792;47.740;7.606;2023-11-18T08:22:51;6.70;99.90
7502;DHT22;3792;47.740;7.606;2023-11-18T08:25:18;6.80;99.90
7502;DHT22;3792;47.740;7.606;2023-11-18T08:27:48;6.80;99.90
7502;DHT22;3792;47.740;7.606;2023-11-18T08:30:15;6.90;99.90
7502;DHT22;3792;47.740;7.606;2023-11-18T08:32:44;6.90;99.90
7502;DHT22;3792;47.740;7.606;2023-11-18T08:35:12;7.00;99.90
7502;DHT22;3792;47.740;7.606;2023-11-18T08:37:40;7.10;99.90
7502;DHT22;3792;47.740;7.606;2023-11-18T08:40:08;7.10;99.90
7502;DHT22;3792;47.740;7.606;2023-11-18T08:42:41;7.10;99.90
7502;DHT22;3792;47.740;7.606;2023-11-18T08:45:15;7.10;99.90
7502;DHT22;3792;47.740;7.606;2023-11-18T08:47:44;7.20;99.90
7502;DHT22;3792;47.740;7.606;2023-11-18T08:50:13;7.30;99.90
7502;DHT22;3792;47.740;7.606;2023-11-18T08:52:40;7.20;99.90
7502;DHT22;3792;47.740;7.606;2023-11-18T08:55:10;7.30;99.90
7502;DHT22;3792;47.740;7.606;2023-11-18T08:57:44;7.30;99.90
7502;DHT22;3792;47.740;7.606;2023-11-18T09:00:19;7.40;99.90
7502;DHT22;3792;47.740;7.606;2023-11-18T09:03:01;7.40;99.90
7502;DHT22;3792;47.740;7.606;2023-11-18T09:05:32;7.50;99.90
7502;DHT22;3792;47.740;7.606;2023-11-18T09:08:01;7.60;99.90
7502;DHT22;3792;47.740;7.606;2023-11-18T09:10:31;7.60;99.90
7502;DHT22;3792;47.740;7.606;2023-11-18T09:12:59;7.70;99.90
7502;DHT22;3792;47.740;7.606;2023-11-18T09:15:28;7.70;99.90
7502;DHT22;3792;47.740;7.606;2023-11-18T09:17:56;7.70;99.90
7502;DHT22;3792;47.740;7.606;2023-11-18T09:20:23;8.00;99.90
7502;DHT22;3792;47.740;7.606;2023-11-18T09:22:50;8.20;99.90
7502;DHT22;3792;47.740;7.606;2023-11-18T09:25:21;8.20;99.90
7502;DHT22;3792;47.740;7.606;2023-11-18T09:27:49;8.20;99.90
7502;DHT22;3792;47.740;7.606;2023-11-18T09:30:16;8.20;99.90
7502;DHT22;3792;47.740;7.606;2023-11-18T09:32:45;8.20;99.90
7502;DHT22;3792;47.740;7.606;2023-11-18T09:35:13;8.20;99.90
7502;DHT22;3792;47.740;7.606;2023-11-18T09:37:40;8.20;99.90
7502;DHT22;3792;47.740;7.606;2023-11-18T09:40:10;8.20;99.90
7502;DHT22;3792;47.740;7.606;2023-11-18T09:42:40;8.20;99.90
7502;DHT22;3792;47.740;7.606;2023-11-18T09:45:09;8.20;99.90
7502;DHT22;3792;47.740;7.606;2023-11-18T09:47:43;8.30;99.90
7502;DHT22;3792;47.740;7.606;2023-11-18T09:50:17;8.40;99.90
7502;DHT22;3792;47.740;7.606;2023-11-18T09:52:48;8.40;99.90
7502;DHT22;3792;47.740;7.606;2023-11-18T09:55:25;8.40;99.90
7502;DHT22;3792;47.740;7.606;2023-11-18T09:58:00;8.50;99.90
7502;DHT22;3792;47.740;7.606;2023-11-18T10:00:35;8.50;99.90
7502;DHT22;3792;47.740;7.606;2023-11-18T10:03:07;8.50;99.90
7502;DHT22;3792;47.740;7.606;2023-11-18T10:05:40;8.60;99.90
7502;DHT22;3792;47.740;7.606;2023-11-18T10:08:08;8.60;99.90
7502;DHT22;3792;47.740;7.606;2023-11-18T10:10:35;8.60;99.90
7502;DHT22;3792;47.740;7.606;2023-11-18T10:13:03;8.60;99.90
7502;DHT22;3792;47.740;7.606;2023-11-18T10:15:34;8.60;99.90
7502;DHT22;3792;47.740;7.606;2023-11-18T10:18:03;8.70;99.90
7502;DHT22;3792;47.740;7.606;2023-11-18T10:20:48;8.70;99.90
7502;DHT22;3792;47.740;7.606;2023-11-18T10:23:18;8.70;99.90
7502;DHT22;3792;47.740;7.606;2023-11-18T10:25:47;8.70;99.90
7502;DHT22;3792;47.740;7.606;2023-11-18T10:28:22;8.70;99.90
7502;DHT22;3792;47.740;7.606;2023-11-18T10:30:50;8.80;99.90
7502;DHT22;3792;47.740;7.606;2023-11-18T10:33:17;8.70;99.90
7502;DHT22;3792;47.740;7.606;2023-11-18T10:35:52;8.70;99.90
7502;DHT22;3792;47.740;7.606;2023-11-18T10:38:23;8.80;99.90
7502;DHT22;3792;47.740;7.606;2023-11-18T10:40:55;8.80;99.90
7502;DHT22;3792;47.740;7.606;2023-11-18T10:43:23;8.80;99.90
7502;DHT22;3792;47.740;7.606;2023-11-18T10:45:52;8.90;99.90
7502;DHT22;3792;47.740;7.606;2023-11-18T10:48:23;8.90;99.90
7502;DHT22;3792;47.740;7.606;2023-11-18T10:50:52;8.80;99.90
7502;DHT22;3792;47.740;7.606;2023-11-18T10:53:20;8.80;99.90
7502;DHT22;3792;47.740;7.606;2023-11-18T10:55:47;8.80;99.90
7502;DHT22;3792;47.740;7.606;2023-11-18T10:58:16;8.80;99.90
7502;DHT22;3792;47.740;7.606;2023-11-18T11:00:47;8.80;99.90
7502;DHT22;3792;47.740;7.606;2023-11-18T11:03:15;8.80;99.90
7502;DHT22;3792;47.740;7.606;2023-11-18T11:05:44;8.80;99.90
7502;DHT22;3792;47.740;7.606;2023-11-18T11:08:14;8.80;99.90
7502;DHT22;3792;47.740;7.606;2023-11-18T11:10:42;8.80;99.90
7502;DHT22;3792;47.740;7.606;2023-11-18T11:13:09;8.90;99.90
7502;DHT22;3792;47.740;7.606;2023-11-18T11:15:41;8.90;99.90
7502;DHT22;3792;47.740;7.606;2023-11-18T11:18:12;8.90;99.90
7502;DHT22;3792;47.740;7.606;2023-11-18T11:20:57;9.00;99.90
7502;DHT22;3792;47.740;7.606;2023-11-18T11:23:47;9.00;99.90
7502;DHT22;3792;47.740;7.606;2023-11-18T11:26:26;9.00;99.90
7502;DHT22;3792;47.740;7.606;2023-11-18T11:29:12;9.10;99.90
7502;DHT22;3792;47.740;7.606;2023-11-18T11:31:41;9.10;99.90
7502;DHT22;3792;47.740;7.606;2023-11-18T11:34:17;9.10;99.90
7502;DHT22;3792;47.740;7.606;2023-11-18T11:36:47;9.10;99.90
7502;DHT22;3792;47.740;7.606;2023-11-18T11:39:18;9.10;99.90
7502;DHT22;3792;47.740;7.606;2023-11-18T11:41:51;9.10;99.90
7502;DHT22;3792;47.740;7.606;2023-11-18T11:44:21;9.10;99.90
7502;DHT22;3792;47.740;7.606;2023-11-18T11:46:54;9.10;99.90
7502;DHT22;3792;47.740;7.606;2023-11-18T11:49:27;9.10;99.90
7502;DHT22;3792;47.740;7.606;2023-11-18T11:52:04;9.20;99.90
7502;DHT22;3792;47.740;7.606;2023-11-18T11:54:42;9.20;99.90
7502;DHT22;3792;47.740;7.606;2023-11-18T11:57:10;9.10;99.90
7502;DHT22;3792;47.740;7.606;2023-11-18T11:59:56;9.10;99.90
7502;DHT22;3792;47.740;7.606;2023-11-18T12:02:24;9.10;99.90
7502;DHT22;3792;47.740;7.606;2023-11-18T12:04:56;9.10;99.90
7502;DHT22;3792;47.740;7.606;2023-11-18T12:07:25;9.10;99.90
7502;DHT22;3792;47.740;7.606;2023-11-18T12:09:57;9.10;99.90
7502;DHT22;3792;47.740;7.606;2023-11-18T12:12:26;9.00;99.90
7502;DHT22;3792;47.740;7.606;2023-11-18T12:14:55;9.00;99.90
7502;DHT22;3792;47.740;7.606;2023-11-18T12:17:24;9.00;99.90
7502;DHT22;3792;47.740;7.606;2023-11-18T12:19:57;9.00;99.90
7502;DHT22;3792;47.740;7.606;2023-11-18T12:22:25;9.00;99.90
7502;DHT22;3792;47.740;7.606;2023-11-18T12:28:07;9.10;99.90
7502;DHT22;3792;47.740;7.606;2023-11-18T12:30:45;9.00;99.90
7502;DHT22;3792;47.740;7.606;2023-11-18T12:34:00;9.00;99.90
7502;DHT22;3792;47.740;7.606;2023-11-18T12:43:02;8.90;99.90
7502;DHT22;3792;47.740;7.606;2023-11-18T12:46:13;8.90;99.90
7502;DHT22;3792;47.740;7.606;2023-11-18T12:48:49;8.90;99.90
7502;DHT22;3792;47.740;7.606;2023-11-18T12:51:18;8.90;99.90
7502;DHT22;3792;47.740;7.606;2023-11-18T12:53:49;8.80;99.90
7502;DHT22;3792;47.740;7.606;2023-11-18T12:56:17;8.80;99.90
7502;DHT22;3792;47.740;7.606;2023-11-18T12:58:47;8.80;99.90
7502;DHT22;3792;47.740;7.606;2023-11-18T13:01:14;8.80;99.90
7502;DHT22;3792;47.740;7.606;2023-11-18T13:03:42;8.70;99.90
7502;DHT22;3792;47.740;7.606;2023-11-18T13:06:10;8.60;99.90
7502;DHT22;3792;47.740;7.606;2023-11-18T13:08:37;8.60;99.90
7502;DHT22;3792;47.740;7.606;2023-11-18T13:11:05;8.60;99.90
7502;DHT22;3792;47.740;7.606;2023-11-18T13:13:38;8.60;99.90
7502;DHT22;3792;47.740;7.606;2023-11-18T13:16:08;8.50;99.90
7502;DHT22;3792;47.740;7.606;2023-11-18T13:18:42;8.50;99.90
7502;DHT22;3792;47.740;7.606;2023-11-18T13:21:13;8.50;99.90
7502;DHT22;3792;47.740;7.606;2023-11-18T13:23:41;8.50;99.90
7502;DHT22;3792;47.740;7.606;2023-11-18T13:26:09;8.50;99.90
7502;DHT22;3792;47.740;7.606;2023-11-18T13:28:38;8.60;99.90
7502;DHT22;3792;47.740;7.606;2023-11-18T13:31:07;8.60;99.90
7502;DHT22;3792;47.740;7.606;2023-11-18T13:33:37;8.60;99.90
7502;DHT22;3792;47.740;7.606;2023-11-18T13:36:06;8.60;99.90
7502;DHT22;3792;47.740;7.606;2023-11-18T13:38:39;8.60;99.90
7502;DHT22;3792;47.740;7.606;2023-11-18T13:41:11;8.70;99.90
7502;DHT22;3792;47.740;7.606;2023-11-18T13:43:43;8.70;99.90
7502;DHT22;3792;47.740;7.606;2023-11-18T13:46:14;8.70;99.90
7502;DHT22;3792;47.740;7.606;2023-11-18T13:48:41;8.70;99.90
7502;DHT22;3792;47.740;7.606;2023-11-18T13:51:10;8.70;99.90
7502;DHT22;3792;47.740;7.606;2023-11-18T13:53:39;8.80;99.90
7502;DHT22;3792;47.740;7.606;2023-11-18T13:56:09;8.80;99.90
7502;DHT22;3792;47.740;7.606;2023-11-18T13:58:36;8.70;99.90
7502;DHT22;3792;47.740;7.606;2023-11-18T14:01:05;8.70;99.90
7502;DHT22;3792;47.740;7.606;2023-11-18T14:03:35;8.70;99.90
7502;DHT22;3792;47.740;7.606;2023-11-18T14:06:06;8.70;99.90
7502;DHT22;3792;47.740;7.606;2023-11-18T14:08:36;8.70;99.90
7502;DHT22;3792;47.740;7.606;2023-11-18T14:11:03;8.70;99.90
7502;DHT22;3792;47.740;7.606;2023-11-18T14:13:31;8.70;99.90
7502;DHT22;3792;47.740;7.606;2023-11-18T14:16:00;8.70;99.90
7502;DHT22;3792;47.740;7.606;2023-11-18T14:18:27;8.70;99.90
7502;DHT22;3792;47.740;7.606;2023-11-18T14:20:56;8.70;99.90
7502;DHT22;3792;47.740;7.606;2023-11-18T14:23:23;8.70;99.90
7502;DHT22;3792;47.740;7.606;2023-11-18T14:25:51;8.80;99.90
7502;DHT22;3792;47.740;7.606;2023-11-18T14:28:18;8.80;99.90
7502;DHT22;3792;47.740;7.606;2023-11-18T14:30:50;8.80;99.90
7502;DHT22;3792;47.740;7.606;2023-11-18T14:33:18;8.80;99.90
7502;DHT22;3792;47.740;7.606;2023-11-18T14:35:46;8.80;99.90
7502;DHT22;3792;47.740;7.606;2023-11-18T14:38:14;8.80;99.90
7502;DHT22;3792;47.740;7.606;2023-11-18T14:40:45;8.80;99.90
7502;DHT22;3792;47.740;7.606;2023-11-18T14:43:14;8.80;99.90
7502;DHT22;3792;47.740;7.606;2023-11-18T14:45:41;8.70;99.90
7502;DHT22;3792;47.740;7.606;2023-11-18T14:48:09;8.70;99.90
7502;DHT22;3792;47.740;7.606;2023-11-18T14:50:36;8.80;99.90
7502;DHT22;3792;47.740;7.606;2023-11-18T14:53:04;8.70;99.90
7502;DHT22;3792;47.740;7.606;2023-11-18T14:55:33;8.70;99.90
7502;DHT22;3792;47.740;7.606;2023-11-18T14:58:00;8.70;99.90
7502;DHT22;3792;47.740;7.606;2023-11-18T15:00:30;8.70;99.90
7502;DHT22;3792;47.740;7.606;2023-11-18T15:02:58;8.70;99.90
7502;DHT22;3792;47.740;7.606;2023-11-18T15:05:27;8.60;99.90
7502;DHT22;3792;47.740;7.606;2023-11-18T15:07:56;8.60;99.90
7502;DHT22;3792;47.740;7.606;2023-11-18T15:10:27;8.60;99.90
7502;DHT22;3792;47.740;7.606;2023-11-18T15:12:57;8.60;99.90
7502;DHT22;3792;47.740;7.606;2023-11-18T15:15:27;8.60;99.90
7502;DHT22;3792;47.740;7.606;2023-11-18T15:17:58;8.50;99.90
7502;DHT22;3792;47.740;7.606;2023-11-18T15:20:26;8.50;99.90
7502;DHT22;3792;47.740;7.606;2023-11-18T15:22:53;8.50;99.90
7502;DHT22;3792;47.740;7.606;2023-11-18T15:25:20;8.50;99.90
7502;DHT22;3792;47.740;7.606;2023-11-18T15:27:47;8.50;99.90
7502;DHT22;3792;47.740;7.606;2023-11-18T15:30:16;8.60;99.90
7502;DHT22;3792;47.740;7.606;2023-11-18T15:32:44;8.60;99.90
7502;DHT22;3792;47.740;7.606;2023-11-18T15:35:12;8.60;99.90
7502;DHT22;3792;47.740;7.606;2023-11-18T15:37:43;8.90;99.90
7502;DHT22;3792;47.740;7.606;2023-11-18T15:40:12;8.90;99.90
7502;DHT22;3792;47.740;7.606;2023-11-18T15:42:41;9.10;99.90
7502;DHT22;3792;47.740;7.606;2023-11-18T15:45:09;9.00;99.90
7502;DHT22;3792;47.740;7.606;2023-11-18T15:47:40;9.20;99.90
7502;DHT22;3792;47.740;7.606;2023-11-18T15:50:09;9.50;99.90
7502;DHT22;3792;47.740;7.606;2023-11-18T15:52:38;9.70;99.90
7502;DHT22;3792;47.740;7.606;2023-11-18T15:55:06;9.90;99.90
7502;DHT22;3792;47.740;7.606;2023-11-18T15:57:39;10.10;99.90
7502;DHT22;3792;47.740;7.606;2023-11-18T16:00:08;10.10;99.90
7502;DHT22;3792;47.740;7.606;2023-11-18T16:02:42;10.40;99.90
7502;DHT22;3792;47.740;7.606;2023-11-18T16:05:11;10.30;99.90
7502;DHT22;3792;47.740;7.606;2023-11-18T16:07:42;9.90;99.90
7502;DHT22;3792;47.740;7.606;2023-11-18T16:10:09;9.50;99.90
7502;DHT22;3792;47.740;7.606;2023-11-18T16:12:43;9.30;99.90
7502;DHT22;3792;47.740;7.606;2023-11-18T16:15:11;9.10;99.90
7502;DHT22;3792;47.740;7.606;2023-11-18T16:17:40;8.90;99.90
7502;DHT22;3792;47.740;7.606;2023-11-18T16:20:09;8.80;99.90
7502;DHT22;3792;47.740;7.606;2023-11-18T16:22:40;8.80;99.90
7502;DHT22;3792;47.740;7.606;2023-11-18T16:25:08;8.70;99.90
7502;DHT22;3792;47.740;7.606;2023-11-18T16:27:36;8.70;99.90
7502;DHT22;3792;47.740;7.606;2023-11-18T16:30:03;8.80;99.90
7502;DHT22;3792;47.740;7.606;2023-11-18T16:32:30;8.70;99.90
7502;DHT22;3792;47.740;7.606;2023-11-18T16:34:59;8.80;99.90
7502;DHT22;3792;47.740;7.606;2023-11-18T16:37:27;8.80;99.90
7502;DHT22;3792;47.740;7.606;2023-11-18T16:39:54;8.80;99.90